Nearby METAR Reports

 

KLBE - Latrobe/Westmorl, Pennsylvania, USA
Distance from station: SE 16mi, 26km
Updated: Sun, 21-Dec-2014 11:45am EST
Overcast
Overcast
 Wind from calm
Wind: Calm
Temperature: 32°F , 0°C
Dew Point: 23°F , -5°C
Humidity: 69%
Barometer: 30.32 inHg , 1026.8 hPa
Clouds: Overcast
Visibility: 10 miles , 16 km
Cloud details: Partly cloudy 2500 ft
Overcast 4500 ft
2014/12/21 16:45 KLBE 211645Z 00000KT 10SM SCT025 OVC045 00/M05 A3032
KAGC - Pittsburgh/Alleg, Pennsylvania, USA
Distance from station: WSW 18mi, 30km
Updated: Sun, 21-Dec-2014 12:00pm EST
Overcast
Overcast
 Wind from SSE
Wind: SSE 3 mph , 6 km/h
Temperature: 30°F , -1°C
Dew Point: 19°F , -7°C
Humidity: 64%
Barometer: 30.28 inHg , 1025.4 hPa
Clouds: Overcast
Visibility: 7 miles , 11 km
Cloud details: Overcast 2200 ft
2014/12/21 17:00 KAGC 211700Z 15003KT 7SM OVC022 M01/M07 A3028 RMK AO2 T10111072
 
KBTP - Butler Co., Pennsylvania, USA
Distance from station: NW 29mi, 47km
Updated: Sun, 21-Dec-2014 11:55am EST
Overcast
Overcast
 Wind from ESE
Wind: ESE 3 mph , 6 km/h
Temperature: 28°F , -2°C
Dew Point: 19°F , -7°C
Humidity: 69%
Barometer: 30.31 inHg , 1026.4 hPa
Clouds: Overcast
Visibility: 10 miles , 16 km
Cloud details: Overcast 2400 ft
2014/12/21 16:55 KBTP 211655Z AUTO 11003KT 10SM OVC024 M02/M07 A3031 RMK AO1
KIDI - Indiana/Stewart, Pennsylvania, USA
Distance from station: ENE 29mi, 47km
Updated: Sun, 21-Dec-2014 11:55am EST
Overcast
Overcast
 Wind from calm
Wind: Calm
Temperature: 28°F , -2°C
Dew Point: 21°F , -6°C
Humidity: 74%
Barometer: 30.32 inHg , 1026.8 hPa
Clouds: Overcast
Visibility: 10 miles , 16 km
Cloud details: Overcast 2000 ft
2014/12/21 16:55 KIDI 211655Z AUTO 00000KT 10SM OVC020 M02/M06 A3032 RMK A01
 
KPIT - Pittsburgh, Pennsylvania, USA
Distance from station: W 36mi, 57km
Updated: Sun, 21-Dec-2014 11:51am EST
Overcast
Overcast
 Wind from calm
Wind: Calm
Temperature: 30°F , -1°C
Dew Point: 21°F , -6°C
Humidity: 69%
Barometer: 30.29 inHg , 1025.7 hPa
Clouds: Overcast
Visibility: 10 miles , 16 km
Cloud details: Overcast 2500 ft
2014/12/21 16:51 KPIT 211651Z 00000KT 10SM OVC025 M01/M06 A3029 RMK AO2 SLP280 T10061061
KJST - Johnstown, Pennsylvania, USA
Distance from station: ESE 41mi, 66km
Updated: Sun, 21-Dec-2014 11:54am EST
Overcast
Overcast
 Wind from varies
Wind: varies 5 mph , 7 km/h
Temperature: 27°F , -3°C
Wind Chill: 21°F , -6°C
Dew Point: 19°F , -7°C
Humidity: 74%
Barometer: 30.22 inHg , 1023.4 hPa
Clouds: Overcast
Visibility: 10 miles , 16 km
Cloud details: Overcast 1300 ft
2014/12/21 16:54 KJST 211654Z AUTO VRB04KT 10SM OVC013 M03/M07 A3022 RMK AO2 SLP263 T10281067
 
KAFJ - Washington, Pennsylvania, USA
Distance from station: WSW 42mi, 68km
Updated: Fri, 19-Dec-2014 11:55am EST
NOT Current

 
2014/12/19 16:55 KAFJ 191655Z AUTO RMK AO1
KBVI - Beaver Falls Arp, Pennsylvania, USA
Distance from station: WNW 48mi, 77km
Updated: Sun, 21-Dec-2014 11:47am EST
Overcast
Overcast
 Wind from calm
Wind: Calm
Temperature: 30°F , -1°C
Dew Point: 21°F , -6°C
Humidity: 69%
Barometer: 30.29 inHg , 1025.7 hPa
Clouds: Overcast
Visibility: 10 miles , 16 km
Cloud details: Overcast 2500 ft
2014/12/21 16:47 KBVI 211647Z 00000KT 10SM OVC025 M01/M06 A3029